Brunswick, NE (68720)

1:17 PM CST on February 14, 2016 (GMT -0600)
KNENELIG1 | | Change Station
CLOSE
Current Station
Personal Weather Station
Location: Neligh, NE
Elevation: 1750 ft
Nearby Weather Stations

Elev 1750 ft 42.13 °N, 98.03 °W | Updated 2 minutes ago

Overcast
Overcast
39.9 °F
Feels Like 40 °F
N
2.0
Wind Variable Wind from NW
Gusts 6.0 mph

Today
High -- | Low -- °F
--% Chance of Precip.
Yesterday
High -- | Low -- °F
Precip. -- in
Pressure 29.79 in
Visibility 10.0 miles
Clouds Mostly Cloudy 1700 ft
Overcast 3000 ft
Windchill 40 °F
Dew Point 34 °F
Humidity 81%
Rainfall 0.11 in
Snow Depth Not available.
7:30 AM 6:02 PM
Waxing Crescent, 44% visible
SPECI KOFK 141914Z AUTO 32012KT 10SM BKN017 OVC030 02/M01 A2979 RMK AO2 RAB06E12 P0000 T00221011
Pressure 29.79 in
Visibility 10.0 miles
Clouds Mostly Cloudy 1700 ft
Overcast 3000 ft
Windchill 40 °F
Dew Point 34 °F
Humidity 81%
Rainfall 0.11 in
Snow Depth Not available.
7:30 AM 6:02 PM
Waxing Crescent, 44% visible
SPECI KOFK 141914Z AUTO 32012KT 10SM BKN017 OVC030 02/M01 A2979 RMK AO2 RAB06E12 P0000 T00221011

10-Day Weather Forecast

Almanac

Astronomy

Feb. 14, 2016 Rise Set
Actual Time
Civil Twilight
Nautical Twilight
Astronomical Twilight
Moon
Length of Visible Light
Length of Day
Tomorrow will be .
, % of the Moon is Illuminated

Today's Extremes

State Highs State Lows

Community

WunderPhotos

Upload Photos

1,892,875 photos uploaded!

WunderBlog® & News

Nearby

Air Quality

  Air Quality AQ Index Pollutant
Not available.

Snow Depth

Station Depth Elevation

Earthquake Activity

City Distance Mag. Time & Date
Minimum magnitude displayed is 2.5.

Coastal Water Temperatures

Place Temperature

Stations

Nearby Weather Stations

Station Location Temp. Windchill Dew Point Humidity Wind Precip. Elev Updated Type
                   

Watches & Warnings

There are currently no watches in effect.